Time;durP1;ratioP1;P1;durP2;ratioP2;P2;SDS_P1;SDS_P2;PMS_P1;PMS_P2;Temp;Humidity;BMP_temperature;BMP_pressure;BME280_temperature;BME280_humidity;BME280_pressure;Samples;Min_cycle;Max_cycle;Signal;HPM_P1;HPM_P2
2023/12/15 00:00:10;;;;;;;17.63;7.00;;;;;;;;;;6221691;28;20032;-88
2023/12/15 00:03:12;;;;;;;16.80;6.38;;;;;;;;;;6194237;28;20050;-87
2023/12/15 00:06:14;;;;;;;16.10;6.57;;;;;;;;;;6153940;28;20116;-86
2023/12/15 00:09:17;;;;;;;15.15;6.80;;;;;;;;;;6141103;28;20501;-86
2023/12/15 00:12:19;;;;;;;18.50;6.72;;;;;;;;;;6171512;28;20046;-87
2023/12/15 00:15:21;;;;;;;18.15;6.22;;;;;;;;;;6171371;28;20571;-87
2023/12/15 00:18:24;;;;;;;17.50;6.32;;;;;;;;;;6151329;28;20085;-86
2023/12/15 00:21:29;;;;;;;19.95;8.02;;;;;;;;;;6169229;28;20069;-87
2023/12/15 00:24:30;;;;;;;16.63;6.55;;;;;;;;;;6184779;28;20598;-87
2023/12/15 00:27:35;;;;;;;18.55;6.82;;;;;;;;;;6160744;28;20065;-86
2023/12/15 00:30:37;;;;;;;16.65;6.72;;;;;;;;;;6182106;28;20537;-87
2023/12/15 00:33:39;;;;;;;20.00;7.20;;;;;;;;;;6192440;28;20042;-86
2023/12/15 00:36:40;;;;;;;16.98;7.70;;;;;;;;;;6167380;28;20046;-85
2023/12/15 00:39:42;;;;;;;17.77;6.75;;;;;;;;;;6183974;28;20049;-85
2023/12/15 00:42:44;;;;;;;17.33;6.90;;;;;;;;;;6143303;28;20138;-86
2023/12/15 00:45:46;;;;;;;17.02;6.95;;;;;;;;;;6170885;28;20058;-86
2023/12/15 00:48:48;;;;;;;20.33;7.68;;;;;;;;;;6172145;28;20505;-86
2023/12/15 00:51:50;;;;;;;18.23;7.28;;;;;;;;;;6167571;28;20061;-87
2023/12/15 00:54:52;;;;;;;15.85;6.47;;;;;;;;;;6160187;28;20057;-86
2023/12/15 00:57:54;;;;;;;16.77;7.13;;;;;;;;;;6184115;28;20054;-86
2023/12/15 01:00:55;;;;;;;15.77;7.20;;;;;;;;;;6165834;28;20122;-85
2023/12/15 01:03:57;;;;;;;19.33;7.40;;;;;;;;;;6167856;28;20057;-87
2023/12/15 01:06:59;;;;;;;16.30;6.80;;;;;;;;;;6173655;28;20089;-86
2023/12/15 01:10:01;;;;;;;19.52;7.53;;;;;;;;;;6170753;28;20046;-86
2023/12/15 01:13:03;;;;;;;18.88;7.13;;;;;;;;;;6148389;28;20049;-86
2023/12/15 01:16:05;;;;;;;20.02;7.00;;;;;;;;;;6160531;28;20054;-87
2023/12/15 01:19:07;;;;;;;20.20;7.47;;;;;;;;;;6165401;28;20146;-89
2023/12/15 01:22:09;;;;;;;18.83;7.05;;;;;;;;;;6170420;28;20101;-89
2023/12/15 01:25:11;;;;;;;21.27;7.38;;;;;;;;;;6178245;28;20046;-86
2023/12/15 01:28:13;;;;;;;17.92;6.85;;;;;;;;;;6164755;28;20050;-86
2023/12/15 01:31:15;;;;;;;16.45;7.07;;;;;;;;;;6172051;28;20042;-86
2023/12/15 01:34:16;;;;;;;18.48;7.43;;;;;;;;;;6147169;28;20661;-87
2023/12/15 01:37:18;;;;;;;17.58;7.15;;;;;;;;;;6149199;28;20106;-86
2023/12/15 01:40:20;;;;;;;18.52;7.65;;;;;;;;;;6157598;28;20070;-86
2023/12/15 01:43:22;;;;;;;17.52;6.80;;;;;;;;;;6179982;28;20121;-87
2023/12/15 01:46:24;;;;;;;19.60;7.40;;;;;;;;;;6164575;28;20049;-86
2023/12/15 01:49:27;;;;;;;19.30;7.53;;;;;;;;;;6159128;28;20050;-86
2023/12/15 01:52:29;;;;;;;15.48;6.20;;;;;;;;;;6176904;28;20050;-86
2023/12/15 01:55:31;;;;;;;16.45;6.38;;;;;;;;;;6146792;28;20177;-87
2023/12/15 01:58:32;;;;;;;15.40;6.40;;;;;;;;;;6178631;28;20060;-87
2023/12/15 02:01:34;;;;;;;16.17;5.93;;;;;;;;;;6162079;28;20049;-86
2023/12/15 02:04:37;;;;;;;17.52;7.15;;;;;;;;;;6161581;28;20062;-86
2023/12/15 02:07:40;;;;;;;14.00;5.80;;;;;;;;;;6146776;28;20489;-87
2023/12/15 02:10:41;;;;;;;17.70;6.65;;;;;;;;;;6176335;28;20653;-87
2023/12/15 02:13:43;;;;;;;19.65;6.80;;;;;;;;;;6159329;28;20046;-86
2023/12/15 02:16:45;;;;;;;18.25;6.28;;;;;;;;;;6180774;28;20046;-86
2023/12/15 02:19:47;;;;;;;21.20;6.40;;;;;;;;;;6166026;28;20446;-87
2023/12/15 02:22:49;;;;;;;21.27;6.95;;;;;;;;;;6170432;28;20073;-86
2023/12/15 02:25:50;;;;;;;18.40;6.63;;;;;;;;;;6166397;28;20052;-86
2023/12/15 02:28:52;;;;;;;16.33;7.18;;;;;;;;;;6147521;28;20050;-86
2023/12/15 02:31:54;;;;;;;18.98;6.93;;;;;;;;;;6178360;28;20062;-89
2023/12/15 02:34:57;;;;;;;16.33;6.85;;;;;;;;;;6156003;28;20050;-86
2023/12/15 02:38:00;;;;;;;19.15;7.18;;;;;;;;;;6168523;28;20057;-86
2023/12/15 02:41:02;;;;;;;17.33;6.25;;;;;;;;;;6148678;28;20190;-86
2023/12/15 02:44:04;;;;;;;16.73;6.45;;;;;;;;;;6166876;28;20516;-85
2023/12/15 02:47:06;;;;;;;20.05;7.05;;;;;;;;;;6163809;28;20050;-85
2023/12/15 02:50:10;;;;;;;30.33;6.68;;;;;;;;;;6157753;28;20050;-86
2023/12/15 02:53:14;;;;;;;18.85;7.07;;;;;;;;;;6183347;28;20030;-86
2023/12/15 02:56:15;;;;;;;;;;;;;;;;;;6194595;28;20028;-86
2023/12/15 02:59:17;;;;;;;15.82;6.03;;;;;;;;;;6178932;28;19925;-86
2023/12/15 03:02:19;;;;;;;20.65;7.50;;;;;;;;;;6180698;28;20042;-86
2023/12/15 03:05:21;;;;;;;26.75;10.27;;;;;;;;;;6164831;28;20061;-86
2023/12/15 03:08:24;;;;;;;26.42;11.43;;;;;;;;;;6162472;28;20042;-86
2023/12/15 03:11:26;;;;;;;25.40;9.65;;;;;;;;;;6152583;28;20096;-86
2023/12/15 03:14:28;;;;;;;21.58;7.57;;;;;;;;;;6160651;28;20070;-86
2023/12/15 03:17:30;;;;;;;21.52;7.63;;;;;;;;;;6163813;28;20304;-86
2023/12/15 03:20:32;;;;;;;19.83;7.30;;;;;;;;;;6149386;28;20050;-85
2023/12/15 03:23:34;;;;;;;21.02;7.70;;;;;;;;;;6167710;28;20061;-86
2023/12/15 03:26:36;;;;;;;27.33;9.93;;;;;;;;;;6176485;28;20073;-85
2023/12/15 03:29:38;;;;;;;25.75;9.40;;;;;;;;;;6167839;28;20206;-85
2023/12/15 03:32:39;;;;;;;27.73;9.27;;;;;;;;;;6161511;28;20424;-86
2023/12/15 03:35:43;;;;;;;21.05;7.65;;;;;;;;;;6167110;28;20042;-86
2023/12/15 03:38:45;;;;;;;27.42;8.85;;;;;;;;;;6168429;28;20528;-86
2023/12/15 03:41:47;;;;;;;24.90;9.43;;;;;;;;;;6164909;28;20500;-86
2023/12/15 03:44:49;;;;;;;23.00;9.32;;;;;;;;;;6166903;28;20149;-86
2023/12/15 03:47:51;;;;;;;22.13;8.50;;;;;;;;;;6159655;28;20073;-86
2023/12/15 03:50:54;;;;;;;23.00;8.45;;;;;;;;;;6180773;28;20046;-85
2023/12/15 03:53:55;;;;;;;24.33;8.65;;;;;;;;;;6179137;28;20057;-86
2023/12/15 03:56:58;;;;;;;26.05;7.80;;;;;;;;;;6167350;28;20107;-86
2023/12/15 04:00:00;;;;;;;28.73;8.63;;;;;;;;;;6166299;28;20050;-86
2023/12/15 04:03:01;;;;;;;29.40;9.07;;;;;;;;;;6156841;28;20540;-85
2023/12/15 04:06:07;;;;;;;39.30;9.98;;;;;;;;;;6165970;28;20514;-86
2023/12/15 04:09:09;;;;;;;20.77;8.40;;;;;;;;;;6166655;28;20046;-86
2023/12/15 04:12:11;;;;;;;22.95;7.95;;;;;;;;;;6165083;28;20050;-86
2023/12/15 04:15:13;;;;;;;29.67;9.73;;;;;;;;;;6151780;28;20137;-86
2023/12/15 04:18:16;;;;;;;31.85;10.43;;;;;;;;;;6171599;28;20125;-87
2023/12/15 04:21:18;;;;;;;25.58;8.27;;;;;;;;;;6178088;28;20528;-87
2023/12/15 04:24:20;;;;;;;25.05;8.95;;;;;;;;;;6190733;28;20043;-86
2023/12/15 04:27:22;;;;;;;24.50;8.85;;;;;;;;;;6164381;28;20054;-87
2023/12/15 04:30:24;;;;;;;24.47;8.50;;;;;;;;;;6165525;28;20048;-86
2023/12/15 04:33:26;;;;;;;24.67;7.78;;;;;;;;;;6164414;28;20173;-87
2023/12/15 04:36:28;;;;;;;25.92;7.85;;;;;;;;;;6163579;28;20180;-86
2023/12/15 04:39:30;;;;;;;26.60;8.70;;;;;;;;;;6147331;28;20345;-86
2023/12/15 04:42:32;;;;;;;25.90;7.88;;;;;;;;;;6170820;28;20444;-87
2023/12/15 04:45:34;;;;;;;28.48;8.85;;;;;;;;;;6145333;28;20050;-87
2023/12/15 04:48:36;;;;;;;29.33;10.00;;;;;;;;;;6166309;28;20138;-87
2023/12/15 04:51:37;;;;;;;26.50;8.88;;;;;;;;;;6148205;28;20057;-86
2023/12/15 04:54:39;;;;;;;30.08;10.10;;;;;;;;;;6144482;28;20137;-87
2023/12/15 04:57:41;;;;;;;27.50;10.57;;;;;;;;;;6165769;28;20038;-86
2023/12/15 05:00:43;;;;;;;34.67;12.23;;;;;;;;;;6164571;28;20133;-86
2023/12/15 05:03:45;;;;;;;24.00;9.05;;;;;;;;;;6167179;28;20052;-87
2023/12/15 05:06:48;;;;;;;26.25;8.40;;;;;;;;;;6183228;28;20125;-86
2023/12/15 05:09:49;;;;;;;37.75;10.88;;;;;;;;;;6164233;28;20050;-87
2023/12/15 05:12:51;;;;;;;33.20;10.23;;;;;;;;;;6146422;28;20413;-86
2023/12/15 05:15:53;;;;;;;27.38;8.98;;;;;;;;;;6165531;28;20042;-86
2023/12/15 05:18:55;;;;;;;30.35;10.07;;;;;;;;;;6153533;28;20625;-86
2023/12/15 05:21:57;;;;;;;32.67;10.13;;;;;;;;;;6155167;28;20039;-86
2023/12/15 05:24:59;;;;;;;32.63;11.43;;;;;;;;;;6146717;28;20084;-86
2023/12/15 05:28:01;;;;;;;32.72;9.48;;;;;;;;;;6166813;28;20053;-87
2023/12/15 05:31:03;;;;;;;29.83;10.48;;;;;;;;;;6169603;28;20042;-86
2023/12/15 05:34:05;;;;;;;31.92;10.70;;;;;;;;;;6146663;28;20073;-85
2023/12/15 05:37:07;;;;;;;32.50;11.10;;;;;;;;;;6148133;28;20047;-86
2023/12/15 05:40:12;;;;;;;26.88;10.45;;;;;;;;;;6185182;28;20508;-87
2023/12/15 05:43:14;;;;;;;32.00;10.60;;;;;;;;;;6220453;28;20052;-87
2023/12/15 05:46:17;;;;;;;31.73;10.25;;;;;;;;;;6193817;28;20046;-86
2023/12/15 05:49:19;;;;;;;34.95;10.57;;;;;;;;;;6180875;28;20057;-87
2023/12/15 05:52:21;;;;;;;31.42;10.27;;;;;;;;;;6162397;28;20042;-85
2023/12/15 05:55:23;;;;;;;31.40;9.50;;;;;;;;;;6174871;28;20038;-87
2023/12/15 05:58:24;;;;;;;30.02;10.40;;;;;;;;;;6148739;28;20061;-86
2023/12/15 06:01:26;;;;;;;32.10;11.35;;;;;;;;;;6166860;28;20122;-87
2023/12/15 06:04:28;;;;;;;31.40;11.45;;;;;;;;;;6140675;28;20112;-86
2023/12/15 06:07:31;;;;;;;30.73;11.75;;;;;;;;;;6147195;28;20042;-87
2023/12/15 06:10:33;;;;;;;26.67;8.73;;;;;;;;;;6163911;28;20561;-87
2023/12/15 06:13:35;;;;;;;25.92;9.93;;;;;;;;;;6162615;28;20061;-87
2023/12/15 06:16:36;;;;;;;29.92;11.77;;;;;;;;;;6145981;28;20535;-87
2023/12/15 06:19:41;;;;;;;29.08;11.43;;;;;;;;;;6164407;28;20042;-85
2023/12/15 06:22:43;;;;;;;31.95;13.73;;;;;;;;;;6152838;28;20068;-86
2023/12/15 06:25:45;;;;;;;32.53;12.63;;;;;;;;;;6180697;28;20102;-86
2023/12/15 06:28:48;;;;;;;30.00;10.18;;;;;;;;;;6163400;28;20070;-86
2023/12/15 06:31:50;;;;;;;27.90;9.45;;;;;;;;;;6147836;28;20046;-87
2023/12/15 06:34:51;;;;;;;29.42;9.10;;;;;;;;;;6173335;28;20361;-87
2023/12/15 06:37:53;;;;;;;29.58;9.48;;;;;;;;;;6143364;28;20038;-87
2023/12/15 06:40:55;;;;;;;25.92;9.10;;;;;;;;;;6178651;28;20050;-86
2023/12/15 06:43:58;;;;;;;27.05;9.13;;;;;;;;;;6175989;28;20046;-86
2023/12/15 06:47:00;;;;;;;24.13;7.93;;;;;;;;;;6160295;28;20054;-86
2023/12/15 06:50:02;;;;;;;29.45;10.55;;;;;;;;;;6148161;28;20051;-87
2023/12/15 06:53:04;;;;;;;38.85;12.85;;;;;;;;;;6177196;28;20050;-87
2023/12/15 06:56:06;;;;;;;35.75;13.77;;;;;;;;;;6163957;28;20510;-87
2023/12/15 06:59:08;;;;;;;28.17;11.43;;;;;;;;;;6158909;28;20038;-88
2023/12/15 07:02:10;;;;;;;31.63;10.68;;;;;;;;;;6162641;28;20038;-87
2023/12/15 07:05:12;;;;;;;32.70;11.60;;;;;;;;;;6181737;28;20054;-87
2023/12/15 07:08:14;;;;;;;33.00;12.52;;;;;;;;;;6167672;28;20062;-88
2023/12/15 07:11:16;;;;;;;34.28;12.18;;;;;;;;;;6148607;28;20088;-86
2023/12/15 07:14:18;;;;;;;43.88;11.80;;;;;;;;;;6177036;28;20054;-85
2023/12/15 07:17:20;;;;;;;36.70;11.18;;;;;;;;;;6163378;28;20053;-86
2023/12/15 07:20:24;;;;;;;45.25;15.57;;;;;;;;;;6159903;28;20523;-86
2023/12/15 07:23:26;;;;;;;51.85;18.90;;;;;;;;;;6183668;28;20452;-85
2023/12/15 07:26:28;;;;;;;160.57;54.45;;;;;;;;;;6149395;28;20069;-85
2023/12/15 07:29:29;;;;;;;102.18;39.33;;;;;;;;;;6193283;28;20049;-87
2023/12/15 07:32:31;;;;;;;66.63;35.15;;;;;;;;;;6185483;28;20046;-86
2023/12/15 07:35:33;;;;;;;29.48;10.45;;;;;;;;;;6165578;28;20054;-87
2023/12/15 07:38:36;;;;;;;28.83;10.25;;;;;;;;;;6167570;28;20142;-86
2023/12/15 07:41:39;;;;;;;30.67;10.13;;;;;;;;;;6185801;28;20116;-87
2023/12/15 07:44:41;;;;;;;43.30;19.98;;;;;;;;;;6169137;28;20188;-85
2023/12/15 07:47:42;;;;;;;27.83;9.85;;;;;;;;;;6182951;28;20057;-85
2023/12/15 07:50:45;;;;;;;28.77;10.60;;;;;;;;;;6169612;28;20050;-87
2023/12/15 07:53:47;;;;;;;27.83;10.00;;;;;;;;;;6164671;28;20046;-86
2023/12/15 07:56:49;;;;;;;25.87;9.57;;;;;;;;;;6145301;28;20189;-85
2023/12/15 07:59:51;;;;;;;32.00;12.40;;;;;;;;;;6182217;28;20043;-86
2023/12/15 08:02:55;;;;;;;33.85;10.32;;;;;;;;;;6162281;28;20050;-86
2023/12/15 08:05:57;;;;;;;28.85;10.50;;;;;;;;;;6150102;28;20046;-85
2023/12/15 08:08:59;;;;;;;31.85;9.73;;;;;;;;;;6159342;28;20428;-86
2023/12/15 08:12:01;;;;;;;29.55;10.55;;;;;;;;;;6176270;28;20046;-86
2023/12/15 08:15:03;;;;;;;29.50;10.15;;;;;;;;;;6146956;28;20138;-85
2023/12/15 08:18:05;;;;;;;29.20;10.73;;;;;;;;;;6183498;28;20042;-85
2023/12/15 08:21:07;;;;;;;33.42;11.75;;;;;;;;;;6143324;28;20503;-86
2023/12/15 08:24:09;;;;;;;27.50;10.38;;;;;;;;;;6165619;28;20038;-85
2023/12/15 08:27:12;;;;;;;28.60;11.30;;;;;;;;;;6184108;28;20090;-85
2023/12/15 08:30:14;;;;;;;68.88;25.85;;;;;;;;;;6153008;28;20081;-85
2023/12/15 08:33:16;;;;;;;32.75;12.73;;;;;;;;;;6187856;28;20049;-86
2023/12/15 08:36:19;;;;;;;85.57;23.90;;;;;;;;;;6152050;28;20165;-86
2023/12/15 08:39:20;;;;;;;135.80;34.25;;;;;;;;;;6149407;28;20105;-86
2023/12/15 08:42:22;;;;;;;92.47;25.35;;;;;;;;;;6177615;28;20050;-86
2023/12/15 08:45:24;;;;;;;45.03;14.07;;;;;;;;;;6158848;28;20357;-88
2023/12/15 08:48:26;;;;;;;140.35;33.00;;;;;;;;;;6164106;28;20117;-87
2023/12/15 08:51:28;;;;;;;101.82;27.00;;;;;;;;;;6154589;28;20093;-85
2023/12/15 08:54:29;;;;;;;101.03;26.55;;;;;;;;;;6180728;28;20053;-85
2023/12/15 08:57:31;;;;;;;413.23;87.30;;;;;;;;;;6182854;28;20042;-85
2023/12/15 09:00:33;;;;;;;569.30;128.82;;;;;;;;;;6146774;28;20049;-85
2023/12/15 09:03:36;;;;;;;483.27;100.57;;;;;;;;;;6167528;28;20042;-84
2023/12/15 09:06:38;;;;;;;266.77;58.03;;;;;;;;;;6196528;28;20057;-85
2023/12/15 09:09:46;;;;;;;74.45;20.65;;;;;;;;;;6163445;28;20062;-85
2023/12/15 09:12:48;;;;;;;33.60;13.45;;;;;;;;;;6148048;28;20097;-85
2023/12/15 09:15:49;;;;;;;33.42;12.45;;;;;;;;;;6186462;28;20068;-85
2023/12/15 09:18:52;;;;;;;34.67;13.73;;;;;;;;;;6150006;28;20046;-86
2023/12/15 09:21:53;;;;;;;30.55;11.63;;;;;;;;;;6165307;28;20046;-86
2023/12/15 09:24:55;;;;;;;35.67;11.82;;;;;;;;;;6164809;28;20151;-85
2023/12/15 09:27:57;;;;;;;42.67;13.82;;;;;;;;;;6169452;28;20054;-85
2023/12/15 09:30:59;;;;;;;32.42;12.07;;;;;;;;;;6161706;28;20181;-85
2023/12/15 09:34:01;;;;;;;31.92;11.60;;;;;;;;;;6165845;28;20047;-86
2023/12/15 09:37:04;;;;;;;;;;;;;;;;;;6156219;28;20529;-85
2023/12/15 09:40:06;;;;;;;35.72;12.75;;;;;;;;;;6167727;28;19929;-84
2023/12/15 09:43:08;;;;;;;34.35;12.35;;;;;;;;;;6159952;28;20043;-85
2023/12/15 09:46:11;;;;;;;30.88;11.70;;;;;;;;;;6179807;28;20053;-84
2023/12/15 09:49:15;;;;;;;36.60;14.98;;;;;;;;;;6164790;28;20065;-86
2023/12/15 09:52:17;;;;;;;40.00;14.57;;;;;;;;;;6165333;28;20054;-84
2023/12/15 09:55:19;;;;;;;37.00;14.05;;;;;;;;;;6159049;28;20053;-84
2023/12/15 09:58:21;;;;;;;32.03;12.93;;;;;;;;;;6154803;28;20100;-84
2023/12/15 10:01:23;;;;;;;32.35;12.73;;;;;;;;;;6181485;28;20505;-87
2023/12/15 10:04:25;;;;;;;32.58;11.60;;;;;;;;;;6162737;28;20050;-86
2023/12/15 10:07:28;;;;;;;27.10;11.35;;;;;;;;;;6159829;28;20085;-85
2023/12/15 10:10:33;;;;;;;31.55;13.80;;;;;;;;;;6163326;28;20129;-85
2023/12/15 10:13:35;;;;;;;187.82;53.80;;;;;;;;;;6175662;28;20049;-85
2023/12/15 10:16:37;;;;;;;42.40;17.65;;;;;;;;;;6161301;28;20498;-85
2023/12/15 10:19:39;;;;;;;26.50;10.77;;;;;;;;;;6160987;28;20046;-85
2023/12/15 10:22:41;;;;;;;27.15;11.40;;;;;;;;;;6138788;28;20046;-84
2023/12/15 10:25:47;;;;;;;27.42;11.48;;;;;;;;;;6175291;28;20041;-85
2023/12/15 10:28:53;;;;;;;27.33;10.70;;;;;;;;;;6155342;28;20046;-85
2023/12/15 10:31:55;;;;;;;25.50;10.35;;;;;;;;;;6168999;28;20051;-85
2023/12/15 10:35:00;;;;;;;24.27;10.35;;;;;;;;;;6162678;28;20177;-85
2023/12/15 10:38:06;;;;;;;25.10;9.57;;;;;;;;;;6190797;28;20061;-84
2023/12/15 10:41:09;;;;;;;23.73;8.93;;;;;;;;;;6185642;28;20065;-87
2023/12/15 10:44:14;;;;;;;25.25;9.98;;;;;;;;;;6162237;28;20132;-85
2023/12/15 10:47:17;;;;;;;24.13;10.07;;;;;;;;;;6179954;28;20053;-85
2023/12/15 10:50:19;;;;;;;24.98;9.07;;;;;;;;;;6167434;28;20078;-86
2023/12/15 10:53:21;;;;;;;19.77;7.80;;;;;;;;;;6165395;28;20125;-85
2023/12/15 10:56:26;;;;;;;20.45;8.25;;;;;;;;;;6159516;28;20047;-86
2023/12/15 10:59:28;;;;;;;19.92;8.32;;;;;;;;;;6169276;28;20186;-85
2023/12/15 11:02:32;;;;;;;18.45;7.82;;;;;;;;;;6154995;28;20050;-85
2023/12/15 11:05:35;;;;;;;17.08;7.68;;;;;;;;;;6164226;28;20177;-85
2023/12/15 11:08:40;;;;;;;20.02;7.88;;;;;;;;;;6158637;28;20043;-86
2023/12/15 11:11:41;;;;;;;25.30;10.57;;;;;;;;;;6164940;28;20050;-86
2023/12/15 11:14:44;;;;;;;20.02;7.95;;;;;;;;;;6152863;28;20172;-84
2023/12/15 11:17:49;;;;;;;18.52;8.02;;;;;;;;;;6148213;28;20092;-86
2023/12/15 11:20:51;;;;;;;20.02;8.65;;;;;;;;;;6180694;28;20050;-85
2023/12/15 11:24:03;;;;;;;20.73;10.07;;;;;;;;;;6159782;28;20050;-85
2023/12/15 11:27:05;;;;;;;20.52;10.38;;;;;;;;;;6182111;28;20449;-87
2023/12/15 11:30:44;;;;;;;19.13;8.55;;;;;;;;;;6163155;28;20462;-85
2023/12/15 11:33:46;;;;;;;18.27;8.50;;;;;;;;;;6138550;28;20509;-85
2023/12/15 11:36:51;;;;;;;17.27;7.97;;;;;;;;;;6177761;28;20050;-85
2023/12/15 11:39:54;;;;;;;19.80;7.90;;;;;;;;;;6140751;28;20058;-85
2023/12/15 11:42:56;;;;;;;19.27;7.00;;;;;;;;;;6180974;28;20049;-85
2023/12/15 11:45:59;;;;;;;28.60;9.82;;;;;;;;;;6178263;28;20038;-85
2023/12/15 11:49:00;;;;;;;45.17;16.48;;;;;;;;;;6167015;28;20080;-84
2023/12/15 11:52:08;;;;;;;17.42;7.28;;;;;;;;;;6183862;28;20505;-84
2023/12/15 11:55:10;;;;;;;17.05;6.45;;;;;;;;;;6162585;28;20061;-84
2023/12/15 11:58:14;;;;;;;14.77;7.05;;;;;;;;;;6158685;28;20419;-85
2023/12/15 12:01:17;;;;;;;19.33;8.07;;;;;;;;;;6162484;28;20070;-85
2023/12/15 12:04:19;;;;;;;21.50;9.20;;;;;;;;;;6142971;28;20041;-85
2023/12/15 12:07:21;;;;;;;51.65;19.50;;;;;;;;;;6177750;28;20057;-85
2023/12/15 12:10:31;;;;;;;20.47;7.73;;;;;;;;;;6183880;28;20053;-87
2023/12/15 12:13:34;;;;;;;21.58;9.02;;;;;;;;;;6182477;28;20065;-85
2023/12/15 12:16:37;;;;;;;18.08;7.53;;;;;;;;;;6175931;28;20085;-86
2023/12/15 12:19:42;;;;;;;18.90;6.72;;;;;;;;;;6176672;28;20049;-86
2023/12/15 12:22:45;;;;;;;17.15;6.38;;;;;;;;;;6164531;28;20061;-85
2023/12/15 12:25:51;;;;;;;21.60;9.25;;;;;;;;;;6154409;28;20564;-85
2023/12/15 12:28:53;;;;;;;20.08;8.98;;;;;;;;;;6181559;28;20524;-85
2023/12/15 12:31:55;;;;;;;16.98;7.50;;;;;;;;;;6167696;28;20070;-86
2023/12/15 12:34:57;;;;;;;19.00;8.23;;;;;;;;;;6166020;28;20073;-85
2023/12/15 12:37:59;;;;;;;25.65;7.65;;;;;;;;;;6163841;28;20061;-85
2023/12/15 12:41:05;;;;;;;16.88;7.88;;;;;;;;;;6146923;28;20049;-85
2023/12/15 12:44:07;;;;;;;20.30;7.72;;;;;;;;;;6169696;28;20517;-88
2023/12/15 12:47:09;;;;;;;18.65;7.78;;;;;;;;;;6150620;28;20047;-87
2023/12/15 12:50:11;;;;;;;22.42;11.73;;;;;;;;;;6174616;28;20046;-87
2023/12/15 12:53:14;;;;;;;19.42;8.88;;;;;;;;;;6144442;28;20050;-87
2023/12/15 12:56:17;;;;;;;15.73;7.60;;;;;;;;;;6160765;28;20524;-86
2023/12/15 12:59:20;;;;;;;14.13;7.10;;;;;;;;;;6157384;28;20141;-86
2023/12/15 13:02:23;;;;;;;14.70;7.20;;;;;;;;;;6157221;28;20042;-86
2023/12/15 13:05:25;;;;;;;;;;;;;;;;;;6143757;28;20051;-87
2023/12/15 13:08:30;;;;;;;18.63;8.10;;;;;;;;;;6147863;28;20499;-87
2023/12/15 13:11:32;;;;;;;22.08;9.68;;;;;;;;;;6164489;28;20050;-86
2023/12/15 13:14:36;;;;;;;21.50;10.40;;;;;;;;;;6143991;28;20061;-87
2023/12/15 13:17:39;;;;;;;19.10;9.02;;;;;;;;;;6177020;28;20052;-87
2023/12/15 13:20:41;;;;;;;;;;;;;;;;;;6177342;28;20517;-89
2023/12/15 13:23:43;;;;;;;24.15;9.98;;;;;;;;;;6152040;28;19926;-87
2023/12/15 13:26:45;;;;;;;18.60;6.90;;;;;;;;;;6138300;28;20099;-86
2023/12/15 13:29:51;;;;;;;22.20;7.57;;;;;;;;;;6157834;28;20046;-86
2023/12/15 13:32:53;;;;;;;21.67;8.02;;;;;;;;;;6156042;28;20057;-85
2023/12/15 13:35:57;;;;;;;19.10;7.60;;;;;;;;;;6145437;28;20553;-88
2023/12/15 13:39:15;;;;;;;14.18;6.97;;;;;;;;;;6146253;28;20061;-85
2023/12/15 13:42:18;;;;;;;;;;;;;;;;;;6166061;28;20045;-85
2023/12/15 13:45:21;;;;;;;20.55;8.25;;;;;;;;;;6160184;28;20729;-84
2023/12/15 13:48:25;;;;;;;15.38;6.63;;;;;;;;;;6171271;28;20101;-87
2023/12/15 13:51:28;;;;;;;16.38;6.30;;;;;;;;;;6193232;28;20046;-86
2023/12/15 13:54:30;;;;;;;17.48;6.75;;;;;;;;;;6183792;28;20049;-86
2023/12/15 13:57:32;;;;;;;17.50;6.50;;;;;;;;;;6160592;28;20054;-85
2023/12/15 14:00:33;;;;;;;17.13;6.38;;;;;;;;;;6175557;28;20050;-86
2023/12/15 14:03:36;;;;;;;20.83;7.15;;;;;;;;;;6143283;28;20069;-87
2023/12/15 14:06:38;;;;;;;18.25;7.32;;;;;;;;;;6158483;28;20107;-87
2023/12/15 14:09:40;;;;;;;17.70;6.72;;;;;;;;;;6129181;28;20053;-86
2023/12/15 14:12:42;;;;;;;18.55;7.63;;;;;;;;;;6162085;28;20137;-87
2023/12/15 14:15:43;;;;;;;17.17;7.00;;;;;;;;;;6168503;28;20066;-86
2023/12/15 14:18:45;;;;;;;16.35;6.75;;;;;;;;;;6156649;28;20051;-87
2023/12/15 14:21:47;;;;;;;15.43;6.43;;;;;;;;;;6137077;28;20141;-86
2023/12/15 14:24:49;;;;;;;17.23;7.10;;;;;;;;;;6142817;28;20057;-87
2023/12/15 14:27:52;;;;;;;20.85;8.05;;;;;;;;;;6148614;28;20077;-86
2023/12/15 14:30:54;;;;;;;21.08;8.25;;;;;;;;;;6170016;28;20766;-86
2023/12/15 14:33:56;;;;;;;18.85;7.30;;;;;;;;;;6158923;28;20137;-87
2023/12/15 14:36:59;;;;;;;19.00;7.03;;;;;;;;;;6158346;28;20052;-88
2023/12/15 14:40:01;;;;;;;20.17;7.30;;;;;;;;;;6178562;28;20108;-89
2023/12/15 14:43:03;;;;;;;17.05;7.28;;;;;;;;;;6157183;28;20826;-86
2023/12/15 14:46:04;;;;;;;19.30;8.50;;;;;;;;;;6142900;28;20165;-87
2023/12/15 14:49:06;;;;;;;60.78;20.70;;;;;;;;;;6153277;28;20135;-86
2023/12/15 14:52:08;;;;;;;55.85;20.10;;;;;;;;;;6180273;28;20054;-87
2023/12/15 14:55:11;;;;;;;24.23;8.93;;;;;;;;;;6174865;28;20072;-87
2023/12/15 14:58:13;;;;;;;19.92;8.15;;;;;;;;;;6173915;28;20133;-86
2023/12/15 15:01:15;;;;;;;19.55;7.60;;;;;;;;;;6157801;28;20046;-86
2023/12/15 15:04:23;;;;;;;21.35;7.72;;;;;;;;;;6148222;28;20042;-87
2023/12/15 15:07:25;;;;;;;24.73;8.57;;;;;;;;;;6157360;28;20050;-86
2023/12/15 15:10:30;;;;;;;24.88;8.73;;;;;;;;;;6175666;28;20088;-86
2023/12/15 15:13:33;;;;;;;25.92;10.32;;;;;;;;;;6149799;28;20057;-86
2023/12/15 15:16:36;;;;;;;;;;;;;;;;;;6158861;28;20670;-86
2023/12/15 15:19:38;;;;;;;25.45;11.40;;;;;;;;;;6151493;28;20000;-86
2023/12/15 15:22:42;;;;;;;21.35;9.95;;;;;;;;;;6163978;28;20050;-85
2023/12/15 15:25:44;;;;;;;23.00;10.63;;;;;;;;;;6188960;28;20100;-85
2023/12/15 15:28:46;;;;;;;25.95;10.88;;;;;;;;;;6171701;28;20060;-86
2023/12/15 15:31:47;;;;;;;28.20;11.90;;;;;;;;;;6164473;28;20058;-85
2023/12/15 15:34:49;;;;;;;36.65;11.95;;;;;;;;;;6167112;28;20061;-85
2023/12/15 15:38:05;;;;;;;36.80;13.07;;;;;;;;;;6186284;28;20065;-85
2023/12/15 15:41:10;;;;;;;95.70;23.92;;;;;;;;;;6171689;28;20076;-86
2023/12/15 15:44:12;;;;;;;45.30;19.00;;;;;;;;;;6171837;28;20427;-86
2023/12/15 15:47:22;;;;;;;34.92;15.90;;;;;;;;;;6154219;28;20517;-86
2023/12/15 15:50:31;;;;;;;27.48;13.00;;;;;;;;;;6170562;28;20133;-85
2023/12/15 15:53:33;;;;;;;23.77;11.35;;;;;;;;;;6155245;28;20498;-85
2023/12/15 15:56:35;;;;;;;24.65;10.75;;;;;;;;;;6164194;28;20097;-85
2023/12/15 15:59:39;;;;;;;30.10;14.05;;;;;;;;;;6183141;28;20046;-86
2023/12/15 16:02:41;;;;;;;33.58;14.65;;;;;;;;;;6159047;28;20412;-85
2023/12/15 16:05:43;;;;;;;30.85;14.43;;;;;;;;;;6166795;28;20046;-86
2023/12/15 16:08:45;;;;;;;39.85;16.23;;;;;;;;;;6172417;28;20103;-85
2023/12/15 16:11:47;;;;;;;40.10;18.42;;;;;;;;;;6157652;28;20057;-85
2023/12/15 16:14:49;;;;;;;39.50;15.55;;;;;;;;;;6181119;28;20042;-85
2023/12/15 16:17:51;;;;;;;40.08;17.55;;;;;;;;;;6204312;28;20093;-85
2023/12/15 16:20:53;;;;;;;38.00;17.60;;;;;;;;;;6165235;28;20049;-84
2023/12/15 16:23:55;;;;;;;35.55;15.32;;;;;;;;;;6158883;28;20047;-85
2023/12/15 16:27:00;;;;;;;35.38;14.73;;;;;;;;;;6153552;28;20042;-85
2023/12/15 16:30:02;;;;;;;32.65;15.10;;;;;;;;;;6137123;28;20042;-84
2023/12/15 16:33:06;;;;;;;35.65;14.77;;;;;;;;;;6171291;28;20096;-85
2023/12/15 16:36:20;;;;;;;35.78;14.02;;;;;;;;;;6166841;28;20568;-84
2023/12/15 16:39:24;;;;;;;27.48;11.77;;;;;;;;;;6183773;28;20046;-83
2023/12/15 16:42:26;;;;;;;26.13;11.32;;;;;;;;;;6151731;28;20046;-83
2023/12/15 16:45:28;;;;;;;30.58;12.38;;;;;;;;;;6167257;28;20061;-83
2023/12/15 16:48:30;;;;;;;26.67;10.20;;;;;;;;;;6176768;28;20668;-84
2023/12/15 16:51:35;;;;;;;24.08;9.27;;;;;;;;;;6166364;28;20082;-84
2023/12/15 16:54:38;;;;;;;22.77;8.95;;;;;;;;;;6171729;28;20037;-84
2023/12/15 16:57:40;;;;;;;25.10;9.27;;;;;;;;;;6197313;28;20561;-85
2023/12/15 17:00:42;;;;;;;24.00;9.40;;;;;;;;;;6149253;28;20091;-85
2023/12/15 17:03:45;;;;;;;25.90;10.65;;;;;;;;;;6165604;28;20453;-85
2023/12/15 17:06:47;;;;;;;27.73;12.23;;;;;;;;;;6167371;28;20051;-85
2023/12/15 17:09:49;;;;;;;30.50;12.40;;;;;;;;;;6151249;28;20051;-85
2023/12/15 17:12:51;;;;;;;28.55;13.48;;;;;;;;;;6167676;28;20161;-85
2023/12/15 17:15:53;;;;;;;93.80;39.08;;;;;;;;;;6172448;28;20069;-86
2023/12/15 17:18:55;;;;;;;55.40;25.27;;;;;;;;;;6162657;28;20036;-86
2023/12/15 17:21:57;;;;;;;34.95;14.07;;;;;;;;;;6166978;28;20040;-85
2023/12/15 17:24:59;;;;;;;28.85;13.15;;;;;;;;;;6150423;28;20038;-85
2023/12/15 17:28:01;;;;;;;33.83;15.15;;;;;;;;;;6179721;28;20046;-86
2023/12/15 17:31:05;;;;;;;33.70;16.92;;;;;;;;;;6087789;28;20058;-86
2023/12/15 17:34:07;;;;;;;27.33;14.13;;;;;;;;;;6148115;28;20241;-86
2023/12/15 17:37:09;;;;;;;25.48;10.90;;;;;;;;;;6152950;28;20093;-84
2023/12/15 17:40:11;;;;;;;34.00;15.02;;;;;;;;;;6165341;28;20050;-84
2023/12/15 17:43:14;;;;;;;37.63;15.77;;;;;;;;;;6164314;28;20046;-84
2023/12/15 17:46:29;;;;;;;33.20;14.90;;;;;;;;;;6168224;28;20177;-84
2023/12/15 17:49:31;;;;;;;33.00;14.55;;;;;;;;;;6151548;28;20046;-84
2023/12/15 17:52:32;;;;;;;38.22;17.23;;;;;;;;;;6165250;28;20109;-84